ホノルル の空港の天気 - METARとTAF

ホノルル国際空港 ( PHNL / HNL ) - アメリカ合衆国 ハワイ州ホノルル
飛行場実況気象(Metar)
観測時間06/22 14:53 HST (06/23 00:53 UTC)
風向・風速北東 6m/s 瞬間風速9m/s
視程10km以上
天気現象
少しの雲 雲底高度 820m
全天の8割程度の雲 雲底高度 1370m
気温28.9℃
湿度51%
気圧1013.6hPa
METARPHNL 230053Z 04012G18KT 10SM FEW027 BKN045 29/18 A2993 RMK AO2 SLP136 T02890178
過去の天気等 Google飛行場航空写真 Wunderground天気予報

過去48時間のMETAR

飛行場予報(TAF)
発表時間: 6/22 13:40 HST (6/22 23:40 UTC)
予報対象時間: 22日14時 HST ~ 23日20時 HST
風向・風速北東 7m/s 瞬間風速 11m/s
視程10km以上
少しの雲 雲底高度 910m
全天の4割程度の雲 雲底高度 1,830m
22日20時 HST から
風向・風速北東 4m/s
視程10km以上
少しの雲 雲底高度 910m
全天の4割程度の雲 雲底高度 1,830m
23日10時 HST から
風向・風速東北東 6m/s 瞬間風速 10m/s
視程10km以上
少しの雲 雲底高度 910m
全天の4割程度の雲 雲底高度 1,830m
23日19時 HST から
風向・風速東北東 5m/s
視程10km以上
少しの雲 雲底高度 910m
全天の4割程度の雲 雲底高度 1,830m
PHNL 222340Z 2300/2406 05014G22KT P6SM FEW030 SCT060
FM230600 05008KT P6SM FEW030 SCT060
FM232000 06012G20KT P6SM FEW030 SCT060
FM240500 06010KT P6SM FEW030 SCT060